• Join FlightAware (Why Join?)
  • Login
  • US Flag 
11:25AM EDT


 

Airport Tracker/Info


-or-


 

Live Flight TrackerFlight Track Log ✈ N99AZ ✈ 14-Jun-2013 ✈ KCCR - KTRK

Flight Track Log - Related Links

Times and Time Zones

All times are in EDT time to prevent confusion due to time zone crossing. See the N99AZ flight status page for this flight to view local times or setup timezone preferences in your user account.

Time Position Orientation Groundspeed Altitude Reporting Facility
EDT Latitude Longitude Course Direction KTS MPH feet Rate Location/Type
09:43AM 38.1003 -121.9675 32° Northeast 86 99 3,600  Level Oakland Center
09:44AM 38.1203 -121.9464 40° Northeast 92 106 4,100 480 Climbing Oakland Center
09:45AM 38.1403 -121.9214 45° Northeast 99 114 4,600 420 Climbing Oakland Center
09:46AM 38.1597 -121.8928 49° Northeast 105 121 5,000 420 Climbing Oakland Center
09:47AM 38.0709 -121.8333 32° Northeast  Level FlightAware Approximate
09:47AM 38.1794 -121.8639 49° Northeast 108 124 5,500  Level Oakland Center
09:48AM 38.1027 -121.8079 32° Northeast  Level FlightAware Approximate
09:48AM 38.1986 -121.8333 51° Northeast 110 127 5,900  Level Oakland Center
09:49AM 38.2189 -121.8028 50° Northeast 112 129 6,400 420 Climbing Oakland Center
09:50AM 38.2386 -121.7722 51° Northeast 112 129 6,800 420 Climbing Oakland Center
09:51AM 38.2594 -121.7400 51° Northeast 116 133 7,300 420 Climbing Oakland Center
09:52AM 38.2794 -121.7086 51° Northeast 115 132 7,700 360 Climbing Oakland Center
09:53AM 38.2992 -121.6775 51° Northeast 113 130 8,100 480 Climbing Oakland Center
09:54AM 38.3242 -121.6392 50° Northeast 116 133 8,700 540 Climbing Oakland Center
09:55AM 38.3333 -121.6167 63° Northeast 119 137 9,100 420 Climbing Northern Cal TRACON
09:56AM 38.3667 -121.5833 38° Northeast 120 138 9,500 420 Climbing Northern Cal TRACON
09:57AM 38.3833 -121.5500 57° Northeast 120 138 9,900 420 Climbing Northern Cal TRACON
09:58AM 38.4000 -121.5167 57° Northeast 122 140 10,400 420 Climbing Northern Cal TRACON
09:59AM 38.4167 -121.4833 57° Northeast 121 139 10,800 300 Climbing Northern Cal TRACON
10:00AM 38.4500 -121.4500 38° Northeast 137 158 11,000 60 Climbing Northern Cal TRACON
10:00AM 38.4667 -121.4167 57° Northeast 151 174 11,000  Level Northern Cal TRACON
10:02AM 38.5000 -121.3667 50° Northeast 155 178 11,000  Level Northern Cal TRACON
10:02AM 38.5069 -121.3533 56° Northeast 154 177 11,000  Level Oakland Center
10:03AM 38.5342 -121.3103 51° Northeast 156 180 11,000  Level Oakland Center
10:04AM 38.5614 -121.2672 51° Northeast 157 181 11,000  Level Oakland Center
10:05AM 38.5867 -121.2278 51° Northeast 147 169 11,000  Level Oakland Center
10:06AM 38.6175 -121.1786 51° Northeast 148 170 11,000  Level Oakland Center
10:07AM 38.6333 -121.1500 55° Northeast 151 174 11,000  Level Northern Cal TRACON
10:08AM 38.6500 -121.1167 57° Northeast 149 171 11,000  Level Northern Cal TRACON
10:08AM 38.6667 -121.1011 36° Northeast 150 173 11,000  Level Oakland Center
10:09AM 38.6933 -121.0589 51° Northeast 153 176 11,000  Level Oakland Center
10:10AM 38.7189 -121.0181 51° Northeast 147 169 11,000  Level Oakland Center
10:11AM 38.7494 -120.9692 51° Northeast 148 170 11,000  Level Oakland Center
10:13AM 38.7817 -120.9153 52° Northeast  Level FlightAware Approximate
10:13AM 38.8006 -120.8872 52° Northeast 145 167 11,000  Level Oakland Center
10:14AM 38.8281 -120.8500 47° Northeast 145 167 11,000  Level Oakland Center
10:15AM 38.8583 -120.8175 40° Northeast 143 165 11,000  Level Oakland Center
10:16AM 38.8897 -120.7853 39° Northeast 144 166 11,000  Level Oakland Center
10:17AM 38.9194 -120.7519 41° Northeast 141 162 11,000  Level Oakland Center
10:18AM 38.9492 -120.7206 39° Northeast 139 160 11,000  Level Oakland Center
10:19AM 38.9806 -120.6892 38° Northeast 142 163 11,000  Level Oakland Center
10:20AM 39.0106 -120.6575 39° Northeast 141 162 11,000  Level Oakland Center
10:21AM 39.0406 -120.6258 39° Northeast 139 160 11,000  Level Oakland Center
10:22AM 39.0700 -120.5939 40° Northeast 139 160 11,000  Level Oakland Center
10:23AM 39.1061 -120.5561 39° Northeast 140 161 11,000  Level Oakland Center
10:24AM 39.1350 -120.5231 42° Northeast 139 160 11,000  Level Oakland Center
10:25AM 39.1611 -120.4886 46° Northeast 136 157 11,000  Level Oakland Center
10:26AM 39.1894 -120.4572 41° Northeast 136 157 11,000  Level Oakland Center
10:27AM 39.2181 -120.4275 39° Northeast 134 154 11,000  Level Oakland Center